Time;durP1;ratioP1;P1;durP2;ratioP2;P2;SDS_P1;SDS_P2;PMS_P1;PMS_P2;Temp;Humidity;BMP_temperature;BMP_pressure;BME280_temperature;BME280_humidity;BME280_pressure;Samples;Min_cycle;Max_cycle;Signal;HPM_P1;HPM_P2
2022/01/30 00:00:00;;;;;;;8.55;2.87;;;;;;;-0.20;55.20;99676.81;1715723;80;21104;-54
2022/01/30 00:02:28;;;;;;;5.25;2.42;;;;;;;-0.21;55.35;99677.24;1741210;80;20983;-54
2022/01/30 00:04:54;;;;;;;7.45;2.87;;;;;;;-0.20;55.40;99680.69;1750068;80;21063;-53
2022/01/30 00:07:22;;;;;;;6.20;2.72;;;;;;;-0.19;55.46;99667.66;1723576;81;20999;-53
2022/01/30 00:09:50;;;;;;;7.20;2.55;;;;;;;-0.19;55.52;99667.66;1733126;80;21081;-53
2022/01/30 00:12:22;;;;;;;6.55;2.15;;;;;;;-0.19;55.65;99661.66;1678761;83;21138;-55
2022/01/30 00:14:52;;;;;;;6.70;2.52;;;;;;;-0.16;55.82;99655.05;1679318;82;21688;-53
2022/01/30 00:17:21;;;;;;;7.97;2.90;;;;;;;-0.15;55.87;99650.70;1738354;80;21066;-55
2022/01/30 00:19:52;;;;;;;6.50;2.60;;;;;;;-0.16;55.92;99634.83;1718704;80;21080;-55
2022/01/30 00:27:17;;;;;;;6.10;2.70;;;;;;;-0.15;56.33;99605.45;1747126;80;21132;-54
2022/01/30 00:29:43;;;;;;;13.72;3.42;;;;;;;-0.14;56.28;99599.39;1749533;80;21137;-54
2022/01/30 00:32:09;;;;;;;8.38;2.65;;;;;;;-0.13;56.32;99595.90;1737834;80;21058;-54
2022/01/30 00:34:37;;;;;;;6.28;2.72;;;;;;;-0.08;56.14;99590.05;1698721;83;21028;-54
2022/01/30 00:37:04;;;;;;;6.75;2.83;;;;;;;-0.08;56.14;99590.05;1745451;81;21088;-54
2022/01/30 00:39:31;;;;;;;8.53;3.15;;;;;;;-0.10;56.43;99574.61;1731845;80;21121;-54
2022/01/30 00:41:57;;;;;;;6.17;2.40;;;;;;;-0.10;56.59;99557.80;1750957;80;21034;-56
2022/01/30 00:44:24;;;;;;;7.70;2.75;;;;;;;-0.08;56.39;99553.38;1736834;80;21556;-54
2022/01/30 00:46:51;;;;;;;9.18;3.05;;;;;;;-0.06;56.47;99542.95;1744136;80;21600;-54
2022/01/30 00:49:17;;;;;;;7.22;3.33;;;;;;;-0.04;56.37;99541.13;1750154;80;21035;-53
2022/01/30 00:51:44;;;;;;;10.03;2.52;;;;;;;-0.04;56.56;99530.31;1747626;80;21057;-54
2022/01/30 00:54:11;;;;;;;7.35;2.85;;;;;;;-0.03;56.50;99520.83;1744659;80;21050;-55
2022/01/30 00:56:39;;;;;;;5.75;2.12;;;;;;;-0.02;56.67;99519.46;1737568;80;21576;-54
2022/01/30 00:59:05;;;;;;;8.68;3.33;;;;;;;-0.01;56.60;99511.23;1720625;80;21075;-55
2022/01/30 01:01:32;;;;;;;7.75;3.25;;;;;;;-0.03;56.64;99502.26;1752435;80;21117;-54
2022/01/30 01:04:00;;;;;;;6.12;2.83;;;;;;;-0.03;56.74;99493.67;1749796;80;21046;-54
2022/01/30 01:06:26;;;;;;;6.97;2.80;;;;;;;0.00;56.51;99484.47;1762209;79;21101;-52
2022/01/30 01:08:59;;;;;;;9.15;3.15;;;;;;;-0.04;56.65;99473.42;1744972;81;21114;-53
2022/01/30 01:24:42;;;;;;;7.62;2.62;;;;;;;-0.12;56.96;99419.13;1718404;81;21111;-54
2022/01/30 01:27:09;;;;;;;5.50;2.10;;;;;;;-0.14;56.93;99404.98;1734427;80;21148;-53
2022/01/30 01:29:39;;;;;;;8.95;2.42;;;;;;;-0.13;57.13;99398.08;1731011;81;21050;-54
2022/01/30 01:32:08;;;;;;;5.00;2.22;;;;;;;-0.11;56.93;99389.78;1731899;81;21068;-56
2022/01/30 01:34:38;;;;;;;7.17;2.58;;;;;;;-0.12;56.94;99385.52;1671922;82;21060;-53
2022/01/30 01:37:09;;;;;;;9.95;3.27;;;;;;;-0.09;56.91;99370.67;1727310;82;21109;-52
2022/01/30 01:39:33;;;;;;;6.20;2.55;;;;;;;-0.03;56.72;99369.53;1690529;82;21061;-52
2022/01/30 01:42:00;;;;;;;7.15;2.35;;;;;;;-0.02;56.60;99362.98;1719888;81;20991;-53
2022/01/30 01:44:36;;;;;;;5.55;2.08;;;;;;;0.00;56.59;99352.56;1692132;82;21593;-54
2022/01/30 01:47:01;;;;;;;6.62;2.67;;;;;;;0.00;56.40;99351.27;1720526;81;21136;-53
2022/01/30 01:49:31;;;;;;;10.15;2.70;;;;;;;0.00;56.39;99339.63;1718026;81;21109;-54
2022/01/30 01:52:40;;;;;;;4.78;1.95;;;;;;;0.00;56.38;99333.17;1692836;81;21607;-53
2022/01/30 01:54:29;;;;;;;4.33;2.08;;;;;;;0.00;56.36;99325.41;1696833;81;21079;-52
2022/01/30 01:56:55;;;;;;;4.92;1.70;;;;;;;0.01;56.12;99325.77;1692267;81;21168;-53
2022/01/30 01:59:24;;;;;;;6.28;2.05;;;;;;;0.00;55.86;99307.30;1742529;81;21834;-53
2022/01/30 02:02:01;;;;;;;6.67;2.27;;;;;;;0.01;55.78;99314.59;1745386;81;22367;-54
2022/01/30 02:04:27;;;;;;;5.22;1.77;;;;;;;-0.01;55.67;99310.80;1738694;80;21144;-54
2022/01/30 02:07:08;;;;;;;4.58;1.87;;;;;;;-0.01;55.67;99310.80;1743244;81;21066;-52
2022/01/30 02:09:28;;;;;;;4.90;1.67;;;;;;;0.03;55.49;99314.05;1717101;81;21082;-55
2022/01/30 02:11:51;;;;;;;6.10;2.10;;;;;;;0.04;55.53;99314.44;1715420;81;21128;-52
2022/01/30 02:14:41;;;;;;;3.90;1.70;;;;;;;0.06;55.42;99309.54;1684923;83;21135;-54
2022/01/30 02:26:17;;;;;;;4.00;1.85;;;;;;;0.13;54.69;99294.05;1761982;78;21541;-55
2022/01/30 02:27:57;;;;;;;5.55;1.65;;;;;;;0.12;55.09;99287.23;1724638;81;21627;-53
2022/01/30 02:30:22;;;;;;;5.20;1.85;;;;;;;0.14;54.66;99285.39;1747560;80;21204;-55
2022/01/30 02:32:50;;;;;;;5.10;1.95;;;;;;;0.12;54.87;99276.06;1744760;80;21533;-54
2022/01/30 02:35:18;;;;;;;4.20;1.37;;;;;;;0.11;56.15;99260.97;1698235;82;21153;-54
2022/01/30 02:37:47;;;;;;;5.85;2.22;;;;;;;0.07;56.51;99253.02;1727368;81;21066;-54
2022/01/30 02:40:13;;;;;;;4.55;1.75;;;;;;;0.00;57.52;99240.06;1692516;83;21341;-53
2022/01/30 02:42:46;;;;;;;7.00;1.77;;;;;;;0.00;57.52;99240.06;1749878;80;22201;-53
2022/01/30 02:45:11;;;;;;;4.75;1.85;;;;;;;0.00;58.15;99225.83;1743810;80;21066;-53
2022/01/30 02:47:51;;;;;;;5.97;1.98;;;;;;;-0.03;58.75;99212.59;1744862;80;21045;-54
2022/01/30 02:50:13;;;;;;;6.62;2.30;;;;;;;-0.08;60.49;99191.80;1719812;81;21171;-54
2022/01/30 02:52:40;;;;;;;4.40;1.80;;;;;;;-0.12;61.46;99196.75;1745023;80;21644;-54
2022/01/30 02:55:09;;;;;;;6.17;2.35;;;;;;;-0.19;63.16;99179.45;1661847;82;21069;-53
2022/01/30 02:57:36;;;;;;;5.45;1.55;;;;;;;-0.25;64.39;99167.70;1692076;83;21069;-54
2022/01/30 03:00:06;;;;;;;4.30;1.65;;;;;;;-0.29;65.36;99188.62;1690819;82;21109;-54
2022/01/30 03:02:32;;;;;;;5.95;2.00;;;;;;;-0.40;65.91;99162.91;1691158;83;21198;-54
2022/01/30 03:04:59;;;;;;;5.25;2.17;;;;;;;-0.46;66.66;99154.65;1670988;82;21139;-53
2022/01/30 03:07:26;;;;;;;4.60;2.10;;;;;;;-0.51;67.66;99145.84;1728666;80;21142;-53
2022/01/30 03:09:55;;;;;;;5.78;1.72;;;;;;;-0.54;68.60;99138.72;1738788;80;21058;-54
2022/01/30 03:12:22;;;;;;;5.62;1.77;;;;;;;-0.59;68.77;99121.73;1732723;80;22197;-55
2022/01/30 03:14:49;;;;;;;8.40;2.00;;;;;;;-0.69;69.94;99102.48;1745897;80;21643;-55
2022/01/30 03:17:15;;;;;;;5.17;1.60;;;;;;;-0.69;69.94;99102.48;1744621;81;21001;-63
2022/01/30 03:19:42;;;;;;;6.60;1.98;;;;;;;-0.73;70.11;99089.34;1722648;80;21220;-61
2022/01/30 03:22:09;;;;;;;4.40;1.60;;;;;;;-0.75;70.69;99075.22;1747354;80;21070;-57
2022/01/30 03:24:37;;;;;;;3.72;1.55;;;;;;;-0.79;70.67;99077.61;1740589;80;21493;-59
2022/01/30 03:27:08;;;;;;;5.80;1.92;;;;;;;-0.81;70.50;99078.59;1740980;80;21049;-63
2022/01/30 03:29:38;;;;;;;5.65;2.27;;;;;;;-0.83;70.83;99063.17;1750560;80;21228;-57
2022/01/30 03:32:08;;;;;;;4.55;1.72;;;;;;;-0.83;70.64;99048.97;1775722;78;21061;-57
2022/01/30 03:34:37;;;;;;;5.55;2.00;;;;;;;-0.86;70.94;99041.37;1725838;81;21022;-59
2022/01/30 03:37:04;;;;;;;5.42;1.80;;;;;;;-0.84;70.85;99033.55;1758955;78;21109;-57
2022/01/30 03:39:33;;;;;;;5.17;1.62;;;;;;;-0.81;70.49;99025.64;1720624;80;21024;-58
2022/01/30 03:41:59;;;;;;;7.10;2.30;;;;;;;-0.81;70.49;99025.64;1748710;81;21577;-60
2022/01/30 03:44:26;;;;;;;6.10;1.92;;;;;;;-0.80;70.26;99007.95;1744315;80;21130;-59
2022/01/30 03:46:53;;;;;;;6.30;2.00;;;;;;;-0.78;70.21;99006.11;1746566;80;20990;-62
2022/01/30 03:49:20;;;;;;;3.67;1.32;;;;;;;-0.75;70.41;99013.69;1752113;80;21162;-70
2022/01/30 03:51:48;;;;;;;4.33;1.32;;;;;;;-0.74;70.68;99002.42;1708278;81;22484;-64
2022/01/30 03:54:19;;;;;;;3.67;1.47;;;;;;;-0.73;71.14;98982.14;1726872;80;21073;-61
2022/01/30 03:56:45;;;;;;;4.95;1.82;;;;;;;-0.78;73.92;98984.98;1738262;80;21094;-64
2022/01/30 03:59:12;;;;;;;4.70;1.37;;;;;;;-0.86;75.77;98957.45;1752110;80;21038;-65
2022/01/30 04:01:38;;;;;;;5.55;1.75;;;;;;;-0.86;75.77;98957.45;1748251;81;21055;-62
2022/01/30 04:04:05;;;;;;;4.67;1.60;;;;;;;-0.96;79.31;98957.59;1705412;82;21058;-58
2022/01/30 04:06:34;;;;;;;3.83;1.45;;;;;;;-0.96;79.31;98957.59;1695812;82;21054;-65
2022/01/30 04:09:03;;;;;;;3.55;1.20;;;;;;;-1.01;78.28;98933.77;1693663;82;21243;-69
2022/01/30 04:11:40;;;;;;;5.03;1.98;;;;;;;-1.02;78.55;98936.83;1708358;82;21101;-60
2022/01/30 04:14:15;;;;;;;3.65;1.05;;;;;;;-1.03;78.56;98929.16;1728338;81;21080;-58
2022/01/30 04:17:03;;;;;;;4.50;1.80;;;;;;;-1.03;78.84;98930.45;1690578;83;21145;-69
2022/01/30 04:19:48;;;;;;;5.00;1.40;;;;;;;-1.06;78.89;98921.15;1676589;81;21101;-59
2022/01/30 04:22:34;;;;;;;4.15;1.62;;;;;;;-1.06;78.58;98904.80;1715672;81;21225;-65
2022/01/30 04:25:16;;;;;;;4.72;1.57;;;;;;;-1.07;78.75;98903.98;1722178;81;21038;-60
2022/01/30 04:28:02;;;;;;;3.95;1.52;;;;;;;-1.12;79.34;98905.52;1726175;81;21107;-72
2022/01/30 04:30:37;;;;;;;3.55;1.35;;;;;;;-1.12;79.34;98905.52;1722540;81;21079;-60
2022/01/30 04:33:23;;;;;;;4.87;1.77;;;;;;;-1.15;80.38;98890.66;1725408;81;27065;-59
2022/01/30 04:36:05;;;;;;;11.83;2.05;;;;;;;-1.10;79.89;98871.05;1691582;82;22148;-57
2022/01/30 04:39:09;;;;;;;4.15;1.37;;;;;;;-1.13;80.13;98875.92;1713487;81;21141;-56
2022/01/30 04:42:01;;;;;;;3.67;1.47;;;;;;;-1.17;80.06;98874.44;1736441;81;21080;-59
2022/01/30 04:53:21;;;;;;;5.30;2.50;;;;;;;-1.21;79.70;98841.95;1681340;82;21067;-63
2022/01/30 04:58:35;;;;;;;5.55;2.00;;;;;;;-1.23;79.58;98833.48;1705227;81;21105;-58
2022/01/30 05:03:53;;;;;;;5.60;2.08;;;;;;;-1.25;79.79;98829.69;1734693;80;21193;-59
2022/01/30 05:06:17;;;;;;;3.85;1.55;;;;;;;-1.25;79.30;98828.87;1748388;80;21688;-59
2022/01/30 05:08:54;;;;;;;5.20;1.95;;;;;;;-1.27;79.43;98824.25;1720988;80;21564;-63
2022/01/30 05:11:22;;;;;;;3.77;1.42;;;;;;;-1.28;78.86;98814.84;1722772;80;21200;-63
2022/01/30 05:14:02;;;;;;;3.62;1.45;;;;;;;-1.28;78.65;98809.67;1647925;84;21166;-69
2022/01/30 05:16:40;;;;;;;8.63;1.87;;;;;;;-1.27;77.85;98782.97;1716325;81;21933;-67
2022/01/30 05:19:12;;;;;;;5.35;1.92;;;;;;;-1.27;77.85;98782.97;1714460;81;21164;-66
2022/01/30 05:21:42;;;;;;;7.12;2.65;;;;;;;-1.26;78.14;98784.61;1746698;80;20982;-63
2022/01/30 05:24:12;;;;;;;5.90;2.70;;;;;;;-1.26;78.14;98784.61;1738304;80;21093;-59
2022/01/30 05:26:44;;;;;;;5.85;2.33;;;;;;;-1.26;78.01;98781.59;1747121;80;21164;-67
2022/01/30 05:29:29;;;;;;;6.42;2.62;;;;;;;-1.21;77.67;98770.98;1641214;85;21189;-62
2022/01/30 05:31:58;;;;;;;5.22;1.60;;;;;;;-1.21;77.56;98762.80;1689258;80;21513;-61
2022/01/30 05:34:44;;;;;;;5.10;2.60;;;;;;;-1.23;77.50;98750.89;1718451;81;21065;-61
2022/01/30 05:37:12;;;;;;;5.53;1.95;;;;;;;-1.28;77.39;98733.08;1747269;81;21209;-62
2022/01/30 05:39:58;;;;;;;5.85;2.42;;;;;;;-1.26;77.28;98738.16;1712756;80;21113;-67
2022/01/30 05:42:28;;;;;;;6.75;2.22;;;;;;;-1.28;77.19;98727.09;1720628;80;22193;-63
2022/01/30 05:48:15;;;;;;;7.28;2.52;;;;;;;-1.32;77.89;98726.45;1703370;80;21086;-63
2022/01/30 05:50:57;;;;;;;7.35;2.65;;;;;;;-1.35;77.61;98724.86;1644675;85;21131;-60
2022/01/30 05:53:25;;;;;;;7.53;2.98;;;;;;;-1.37;78.18;98715.56;1711893;80;21101;-61
2022/01/30 05:55:53;;;;;;;5.58;2.47;;;;;;;-1.39;78.53;98701.93;1741575;79;21119;-63
2022/01/30 05:58:20;;;;;;;5.65;2.30;;;;;;;-1.41;80.35;98704.59;1741876;80;21109;-66
2022/01/30 06:00:48;;;;;;;4.85;2.15;;;;;;;-1.43;80.48;98694.83;1709934;81;21552;-64
2022/01/30 06:03:15;;;;;;;8.63;2.58;;;;;;;-1.45;79.17;98697.11;1713708;81;22441;-61
2022/01/30 06:05:46;;;;;;;6.45;2.45;;;;;;;-1.44;79.46;98700.08;1735311;80;21125;-60
2022/01/30 06:08:15;;;;;;;4.90;2.50;;;;;;;-1.46;79.53;98695.00;1734040;80;21480;-64
2022/01/30 06:10:40;;;;;;;8.18;2.52;;;;;;;-1.45;79.73;98694.06;1750540;80;21073;-60
2022/01/30 06:13:07;;;;;;;6.75;2.70;;;;;;;-1.46;79.88;98673.07;1719979;81;21077;-60
2022/01/30 06:15:34;;;;;;;7.15;2.60;;;;;;;-1.44;80.16;98684.59;1689351;83;21030;-65
2022/01/30 06:18:02;;;;;;;5.92;2.05;;;;;;;-1.45;80.36;98676.00;1719776;81;21550;-63
2022/01/30 06:20:49;;;;;;;6.80;2.22;;;;;;;-1.45;80.36;98676.00;1611245;87;21126;-63
2022/01/30 06:23:36;;;;;;;7.37;2.40;;;;;;;-1.41;81.36;98670.20;1627635;86;21153;-61
2022/01/30 06:26:07;;;;;;;6.58;2.10;;;;;;;-1.40;81.23;98653.81;1631597;81;21169;-61
2022/01/30 06:28:45;;;;;;;6.42;2.22;;;;;;;-1.39;81.38;98649.86;1724546;80;21115;-59
2022/01/30 06:31:11;;;;;;;10.23;2.87;;;;;;;-1.38;81.42;98639.92;1740214;81;21189;-63
2022/01/30 06:33:58;;;;;;;9.95;2.45;;;;;;;-1.35;81.71;98625.98;1739912;80;21182;-61
2022/01/30 06:36:28;;;;;;;6.95;2.45;;;;;;;-1.28;82.17;98650.50;1667493;83;21558;-60
2022/01/30 06:39:10;;;;;;;4.35;1.87;;;;;;;-1.29;82.17;98642.41;1709831;79;21101;-64
2022/01/30 06:41:47;;;;;;;7.72;3.10;;;;;;;-1.25;81.92;98634.02;1748381;80;21549;-60
2022/01/30 06:44:22;;;;;;;5.72;2.20;;;;;;;-1.22;81.77;98616.59;1716129;80;22688;-60
2022/01/30 06:46:54;;;;;;;5.47;2.00;;;;;;;-1.21;81.60;98602.78;1688403;81;21154;-61
2022/01/30 06:49:39;;;;;;;7.58;2.20;;;;;;;-1.17;82.00;98642.14;1744297;80;21110;-60
2022/01/30 06:52:16;;;;;;;5.40;1.92;;;;;;;-1.13;82.19;98643.61;1645582;84;21161;-66
2022/01/30 06:55:02;;;;;;;6.05;2.20;;;;;;;-1.10;82.24;98633.57;1743372;80;21330;-61
2022/01/30 06:57:46;;;;;;;5.12;1.98;;;;;;;-1.07;82.39;98622.59;1669910;80;21628;-70
2022/01/30 07:00:30;;;;;;;4.58;1.70;;;;;;;-0.99;82.47;98624.25;1751921;80;21190;-67
2022/01/30 07:03:15;;;;;;;5.35;1.85;;;;;;;-0.99;82.47;98624.25;1737460;81;21572;-61
2022/01/30 07:05:44;;;;;;;4.95;1.67;;;;;;;-0.94;82.46;98577.03;1722331;81;21180;-66
2022/01/30 07:08:12;;;;;;;4.40;1.90;;;;;;;-0.94;82.46;98577.03;1741243;80;21463;-63
2022/01/30 07:10:40;;;;;;;5.47;2.27;;;;;;;-0.92;82.93;98616.11;1742574;80;21142;-61
2022/01/30 07:13:08;;;;;;;4.47;1.80;;;;;;;-0.83;83.47;98596.20;1745898;80;21173;-61
2022/01/30 07:15:35;;;;;;;4.60;1.62;;;;;;;-0.78;83.57;98583.36;1675857;83;21158;-58
2022/01/30 07:18:02;;;;;;;5.15;2.10;;;;;;;-0.72;83.78;98590.36;1729220;81;21101;-60
2022/01/30 07:20:28;;;;;;;6.67;2.00;;;;;;;-0.73;83.54;98590.01;1730844;80;21156;-68
2022/01/30 07:22:55;;;;;;;4.75;1.77;;;;;;;-0.66;83.40;98583.52;1725129;81;21163;-62
2022/01/30 07:25:22;;;;;;;5.17;1.90;;;;;;;-0.60;83.17;98572.81;1729648;81;21108;-60
2022/01/30 07:27:48;;;;;;;5.22;1.85;;;;;;;-0.56;83.02;98579.44;1727480;81;21070;-60
2022/01/30 07:30:15;;;;;;;5.67;2.55;;;;;;;-0.53;83.33;98577.14;1731694;80;21109;-59
2022/01/30 07:32:42;;;;;;;4.47;1.82;;;;;;;-0.49;83.47;98566.95;1728576;80;21181;-58
2022/01/30 07:35:09;;;;;;;5.28;2.12;;;;;;;-0.47;83.08;98576.72;1733728;81;21570;-59
2022/01/30 07:37:36;;;;;;;6.28;1.70;;;;;;;-0.32;83.22;98562.00;1739195;80;21868;-59
2022/01/30 07:40:04;;;;;;;5.90;1.82;;;;;;;-0.32;83.22;98562.00;1730259;80;21561;-62
2022/01/30 07:42:33;;;;;;;5.97;2.00;;;;;;;-0.26;82.81;98551.27;1736710;80;21071;-58
2022/01/30 07:45:00;;;;;;;5.17;2.02;;;;;;;-0.22;83.41;98544.52;1728342;80;21102;-61
2022/01/30 07:47:26;;;;;;;7.62;2.00;;;;;;;-0.19;83.56;98549.47;1739017;80;20990;-59
2022/01/30 07:49:53;;;;;;;4.47;2.30;;;;;;;-0.13;83.43;98546.14;1727445;81;21186;-61
2022/01/30 07:52:21;;;;;;;6.92;2.10;;;;;;;-0.10;83.21;98538.16;1755053;80;21120;-64
2022/01/30 07:54:48;;;;;;;6.97;1.87;;;;;;;-0.06;83.39;98539.16;1694290;82;21074;-65
2022/01/30 07:57:17;;;;;;;3.87;1.55;;;;;;;-0.01;83.61;98550.03;1725200;80;21665;-62
2022/01/30 07:59:43;;;;;;;6.00;2.30;;;;;;;0.08;83.20;98529.19;1746801;80;21157;-60
2022/01/30 08:02:10;;;;;;;5.05;2.40;;;;;;;0.16;82.76;98526.10;1721473;81;22327;-64
2022/01/30 08:04:36;;;;;;;4.92;2.27;;;;;;;0.17;83.13;98505.79;1740841;80;21061;-64
2022/01/30 08:07:04;;;;;;;5.87;2.35;;;;;;;0.20;82.98;98521.55;1741208;80;21110;-65
2022/01/30 08:09:31;;;;;;;4.85;1.87;;;;;;;0.22;82.70;98518.39;1739261;80;21065;-63
2022/01/30 08:11:59;;;;;;;4.15;1.90;;;;;;;0.24;83.25;98506.20;1728657;81;21134;-67
2022/01/30 08:14:25;;;;;;;5.50;2.10;;;;;;;0.28;83.16;98514.11;1711405;80;21197;-60
2022/01/30 08:16:52;;;;;;;4.25;1.55;;;;;;;0.32;83.32;98509.07;1713248;81;21113;-61
2022/01/30 08:19:21;;;;;;;5.22;2.52;;;;;;;0.43;83.12;98513.06;1743701;80;21128;-70
2022/01/30 08:21:47;;;;;;;5.20;1.98;;;;;;;0.49;83.20;98513.13;1751893;80;21325;-61
2022/01/30 08:24:15;;;;;;;5.62;2.17;;;;;;;0.54;83.30;98486.46;1710035;81;21104;-65
2022/01/30 08:26:41;;;;;;;5.87;2.70;;;;;;;0.55;83.30;98494.13;1730129;80;21124;-65
2022/01/30 08:29:10;;;;;;;6.17;2.60;;;;;;;0.57;83.67;98508.70;1726582;81;21153;-66
2022/01/30 08:31:36;;;;;;;5.62;1.82;;;;;;;0.64;83.65;98507.33;1728964;80;21069;-64
2022/01/30 08:34:03;;;;;;;5.28;2.08;;;;;;;0.70;83.55;98493.98;1720336;81;21100;-62
2022/01/30 08:36:30;;;;;;;5.25;2.33;;;;;;;0.73;83.48;98476.94;1724335;80;21635;-71
2022/01/30 08:38:56;;;;;;;4.95;1.80;;;;;;;0.77;83.71;98482.25;1711154;81;22115;-66
2022/01/30 08:41:22;;;;;;;4.10;1.42;;;;;;;0.77;83.50;98478.36;1719545;81;21617;-69
2022/01/30 08:43:49;;;;;;;4.20;1.72;;;;;;;0.89;83.72;98481.41;1720662;81;21675;-54
2022/01/30 08:46:15;;;;;;;4.08;1.82;;;;;;;1.05;83.51;98489.38;1745423;80;21494;-55
2022/01/30 08:48:42;;;;;;;5.05;2.08;;;;;;;1.14;83.17;98465.39;1718784;81;21825;-55
2022/01/30 08:51:08;;;;;;;5.47;2.10;;;;;;;1.20;83.14;98487.46;1731530;80;23345;-55
2022/01/30 08:53:35;;;;;;;5.40;2.22;;;;;;;1.22;83.19;98484.28;1730282;81;21185;-54
2022/01/30 08:56:01;;;;;;;6.15;2.15;;;;;;;1.25;83.36;98481.48;1721050;82;21181;-55
2022/01/30 08:58:29;;;;;;;4.35;1.72;;;;;;;1.34;83.18;98467.84;1735127;80;21154;-55
2022/01/30 09:00:56;;;;;;;3.67;1.57;;;;;;;1.49;83.11;98474.97;1713201;81;21205;-56
2022/01/30 09:03:22;;;;;;;6.05;2.00;;;;;;;1.60;82.84;98468.54;1735865;80;21198;-56
2022/01/30 09:05:49;;;;;;;5.15;2.02;;;;;;;1.66;82.88;98464.66;1725837;81;21069;-55
2022/01/30 09:08:15;;;;;;;4.85;1.80;;;;;;;1.71;82.53;98461.73;1727966;80;21553;-54
2022/01/30 09:10:42;;;;;;;5.75;2.20;;;;;;;1.74;82.25;98457.62;1736543;80;21599;-58
2022/01/30 09:13:08;;;;;;;4.35;1.90;;;;;;;1.78;82.77;98455.14;1719087;81;22152;-57
2022/01/30 09:15:39;;;;;;;4.40;1.82;;;;;;;1.92;82.34;98448.46;1711616;81;22337;-56
2022/01/30 09:18:08;;;;;;;5.60;2.27;;;;;;;2.11;82.41;98451.78;1739427;80;21184;-56
2022/01/30 09:21:51;;;;;;;5.83;2.10;;;;;;;2.35;82.04;98440.46;1849930;75;22495;-56
2022/01/30 09:24:17;;;;;;;4.10;1.70;;;;;;;2.34;81.08;98451.33;1821524;77;21081;-56
2022/01/30 09:26:44;;;;;;;5.08;1.98;;;;;;;2.42;81.45;98444.23;1814381;77;21117;-56
2022/01/30 09:29:11;;;;;;;5.65;1.92;;;;;;;2.49;81.35;98436.34;1817638;77;21023;-55
2022/01/30 09:31:37;;;;;;;5.33;1.80;;;;;;;2.56;81.77;98434.09;1817598;77;21095;-55
2022/01/30 09:34:04;;;;;;;5.05;2.15;;;;;;;2.68;81.30;98438.31;1817355;77;21005;-56
2022/01/30 09:36:30;;;;;;;6.33;2.10;;;;;;;2.86;81.28;98446.44;1774913;78;21163;-56
2022/01/30 09:38:57;;;;;;;6.97;1.80;;;;;;;2.99;79.89;98444.97;1759321;79;21159;-56
2022/01/30 09:41:24;;;;;;;4.40;1.80;;;;;;;3.06;80.50;98439.66;1762102;79;21111;-56
2022/01/30 09:43:50;;;;;;;3.92;1.35;;;;;;;3.12;79.94;98441.73;1713762;80;21014;-56
2022/01/30 09:46:17;;;;;;;5.62;2.05;;;;;;;3.16;80.28;98430.16;1738973;80;21159;-58
2022/01/30 09:48:43;;;;;;;6.50;2.22;;;;;;;3.21;80.22;98436.75;1751228;79;22293;-55
2022/01/30 09:51:11;;;;;;;3.98;1.42;;;;;;;3.30;80.36;98430.83;1753097;80;21512;-56
2022/01/30 09:53:38;;;;;;;5.78;2.10;;;;;;;3.43;79.65;98431.93;1738692;80;21046;-57
2022/01/30 09:56:06;;;;;;;5.87;2.20;;;;;;;3.52;79.77;98429.89;1757887;80;21419;-57
2022/01/30 09:58:33;;;;;;;6.50;2.20;;;;;;;3.59;79.84;98428.91;1751583;79;21116;-57
2022/01/30 10:01:00;;;;;;;4.17;1.60;;;;;;;3.61;79.04;98436.92;1758178;80;21094;-57
2022/01/30 10:03:27;;;;;;;5.60;2.40;;;;;;;3.62;77.67;98439.07;1751913;79;21154;-55
2022/01/30 10:06:13;;;;;;;4.70;1.82;;;;;;;3.62;78.84;98440.37;1734286;80;21073;-58
2022/01/30 10:08:48;;;;;;;4.78;1.75;;;;;;;3.67;79.12;98444.72;1762029;79;22322;-58
2022/01/30 10:11:29;;;;;;;4.45;1.62;;;;;;;3.81;78.51;98437.87;1761239;79;21579;-57
2022/01/30 10:14:07;;;;;;;5.05;1.85;;;;;;;3.89;78.43;98436.77;1764456;80;21038;-57
2022/01/30 10:16:48;;;;;;;6.12;2.00;;;;;;;3.98;79.00;98431.74;1757821;80;21540;-57
2022/01/30 10:19:23;;;;;;;4.20;1.47;;;;;;;4.03;79.00;98437.39;1756689;80;21042;-55
2022/01/30 10:22:08;;;;;;;4.92;2.00;;;;;;;4.04;78.74;98429.94;1760954;80;21141;-56
2022/01/30 10:24:43;;;;;;;5.25;1.77;;;;;;;4.04;78.25;98423.43;1755693;80;21062;-56
2022/01/30 10:27:23;;;;;;;4.35;1.60;;;;;;;4.00;78.24;98422.87;1760196;79;21404;-56
2022/01/30 10:30:05;;;;;;;5.25;1.40;;;;;;;4.04;77.92;98419.04;1758872;79;21584;-56
2022/01/30 10:32:31;;;;;;;4.78;1.40;;;;;;;4.11;76.17;98414.63;1748275;79;21500;-56
2022/01/30 10:35:06;;;;;;;4.78;1.82;;;;;;;4.12;76.28;98414.95;1761595;80;22022;-56
2022/01/30 10:37:36;;;;;;;4.07;1.60;;;;;;;4.10;75.82;98407.28;1715160;80;21070;-56
2022/01/30 10:40:15;;;;;;;4.50;1.70;;;;;;;4.07;75.12;98407.08;1757664;79;21065;-56
2022/01/30 10:42:46;;;;;;;9.70;2.08;;;;;;;4.07;75.43;98403.66;1754973;80;21249;-56
2022/01/30 10:45:17;;;;;;;5.80;1.40;;;;;;;4.07;75.39;98411.47;1763004;79;20997;-57
2022/01/30 10:47:44;;;;;;;5.80;1.67;;;;;;;4.12;74.78;98397.58;1734398;80;21095;-57
2022/01/30 10:50:15;;;;;;;5.42;2.15;;;;;;;4.24;74.15;98406.94;1726052;80;21037;-57
2022/01/30 10:52:51;;;;;;;6.17;1.65;;;;;;;4.34;73.58;98403.08;1759692;79;21415;-57
2022/01/30 10:55:17;;;;;;;3.12;1.25;;;;;;;4.41;73.10;98389.05;1731277;80;21023;-56
2022/01/30 10:57:45;;;;;;;5.12;1.80;;;;;;;4.44;73.53;98385.70;1759102;80;21065;-56
2022/01/30 11:00:13;;;;;;;5.05;1.50;;;;;;;4.45;72.37;98385.21;1733536;80;21034;-56
2022/01/30 11:02:40;;;;;;;5.22;1.50;;;;;;;4.48;71.81;98388.86;1757361;79;21067;-56
2022/01/30 11:05:10;;;;;;;5.50;1.60;;;;;;;4.47;70.23;98378.08;1757376;80;21122;-57
2022/01/30 11:07:37;;;;;;;4.53;1.65;;;;;;;4.45;70.49;98384.75;1761256;80;21234;-56
2022/01/30 11:10:23;;;;;;;3.87;1.40;;;;;;;4.46;69.79;98374.66;1761056;80;21094;-57
2022/01/30 11:12:46;;;;;;;4.22;1.42;;;;;;;4.52;68.99;98372.48;1750126;80;21102;-57
2022/01/30 11:15:21;;;;;;;3.70;1.40;;;;;;;4.64;68.47;98370.94;1761716;79;21503;-56
2022/01/30 11:17:45;;;;;;;4.77;1.73;;;;;;;4.75;67.22;98371.78;1759480;79;21023;-56
2022/01/30 11:20:13;;;;;;;4.97;1.32;;;;;;;4.77;66.42;98369.36;1764241;80;21083;-55
2022/01/30 11:22:44;;;;;;;8.68;1.80;;;;;;;4.81;66.13;98377.77;1744251;80;21015;-56
2022/01/30 11:25:12;;;;;;;4.22;1.65;;;;;;;4.83;65.67;98362.81;1743682;80;21542;-56
2022/01/30 11:27:46;;;;;;;4.70;1.87;;;;;;;4.82;65.73;98354.17;1748221;80;21136;-55
2022/01/30 11:30:15;;;;;;;5.35;1.90;;;;;;;4.82;65.11;98361.14;1718659;80;21106;-56
2022/01/30 11:32:41;;;;;;;3.77;1.12;;;;;;;4.78;65.15;98351.97;1738322;80;21287;-56
2022/01/30 11:35:09;;;;;;;4.12;1.17;;;;;;;4.76;65.31;98359.11;1748377;80;21104;-56
2022/01/30 11:37:39;;;;;;;4.17;1.20;;;;;;;4.77;65.15;98342.49;1756064;81;20983;-56
2022/01/30 11:40:17;;;;;;;4.90;1.47;;;;;;;4.86;64.71;98341.69;1752164;81;21661;-56
2022/01/30 11:42:46;;;;;;;3.83;1.50;;;;;;;4.90;64.72;98348.27;1739359;82;21121;-55
2022/01/30 11:45:27;;;;;;;4.33;1.52;;;;;;;4.90;64.35;98359.99;1733523;82;21112;-56
2022/01/30 11:48:00;;;;;;;3.60;1.10;;;;;;;4.88;64.29;98352.80;1711969;82;21057;-56
2022/01/30 11:50:29;;;;;;;5.92;1.72;;;;;;;4.83;64.43;98356.30;1734977;82;21034;-55
2022/01/30 11:53:04;;;;;;;6.50;1.95;;;;;;;4.81;64.36;98358.22;1738853;82;21026;-56
2022/01/30 11:56:03;;;;;;;3.70;1.25;;;;;;;4.79;64.16;98349.69;1726115;82;21875;-57
2022/01/30 11:58:49;;;;;;;5.25;1.60;;;;;;;4.73;64.00;98340.64;1704874;80;21379;-56
2022/01/30 12:01:37;;;;;;;5.15;1.62;;;;;;;4.69;64.12;98343.65;1731430;82;21668;-56
2022/01/30 12:04:11;;;;;;;4.12;1.12;;;;;;;4.75;64.23;98343.12;1706627;82;21046;-56
2022/01/30 12:06:44;;;;;;;4.50;1.60;;;;;;;4.77;64.22;98338.09;1735575;82;21034;-57
2022/01/30 12:09:22;;;;;;;6.75;1.65;;;;;;;4.77;64.21;98341.19;1733688;80;21042;-56
2022/01/30 12:11:52;;;;;;;5.37;1.47;;;;;;;4.76;64.16;98347.37;1734426;81;21069;-56
2022/01/30 12:14:29;;;;;;;5.67;1.70;;;;;;;4.78;64.65;98333.23;1736088;82;21145;-56
2022/01/30 12:17:05;;;;;;;5.12;1.67;;;;;;;4.90;64.25;98338.33;1729863;82;21098;-56
2022/01/30 12:19:40;;;;;;;5.12;1.60;;;;;;;4.99;64.01;98337.03;1709227;82;21548;-56
2022/01/30 12:22:29;;;;;;;4.08;1.22;;;;;;;5.09;63.64;98340.91;1736867;80;21160;-57
2022/01/30 12:24:53;;;;;;;5.58;2.27;;;;;;;5.15;63.31;98340.37;1717442;81;21026;-57
2022/01/30 12:27:19;;;;;;;6.75;1.40;;;;;;;5.22;62.72;98341.95;1736311;81;21069;-57
2022/01/30 12:29:47;;;;;;;4.90;1.60;;;;;;;5.32;62.60;98336.23;1731109;80;21057;-58
2022/01/30 12:32:26;;;;;;;4.95;1.30;;;;;;;5.39;62.24;98337.80;1742117;81;21543;-57
2022/01/30 12:35:03;;;;;;;4.22;1.42;;;;;;;5.38;61.98;98349.22;1740544;81;21095;-57
2022/01/30 12:37:32;;;;;;;4.10;1.77;;;;;;;5.34;61.97;98348.64;1734333;80;22077;-56